Mario Vidal

Recruteur en chef - Alvarado
13 Févr 2028
Dimanche
Processus

Personnalité

Adaptabilité (20) Ambition (6) Controverse (19) Loyauté (14) Pression (11) Professionnalisme (7) Sportivité (12) Tempérament (9)

Profil

Style d'entraînement Démocratique
Diplôme Continental Pro
Détermination 6
Gestion des joueurs 3
Motivation 5
Discipline 2
Satisfaction professionnelle
100%
Fatigue
0%
Rôle Recruteur en chef
Salaire 15.3K p/s
Contrat 14.03.2029

Performance

Comportement Bon
Efficacité de l'entraînement
13%
Développement des joueurs
5%
Prévention des blessures
20%
Mise en place tactique
30%

Événements récents

A participé à une réunion de recrutement 14j
En formation continue 21j
A participé à une réunion de recrutement 21j
En formation continue 21j
En formation continue 21j
En formation continue 21j
En formation continue 28j
En formation continue 28j

Suivi en cours

212
Joueur Club Statut Capacité Confiance Observé Dernière observation Dernier vote
Gonzalo Flores Almirante Brown Actif 96 / 99 40% 2 29.11.2026 -
Brayan Palmezano Deportivo Tachira Actif 107 / 109 40% 1 29.11.2026 -
Agustín Olavarría Colon Actif 92 / 94 40% 2 28.11.2026 -
Tomás Castro Ponce Atlanta Actif 120 / 127 40% 1 28.11.2026 -
Gustavo Dionisi Guarani Actif 92 / 84 40% 1 28.11.2026 -
Santiago Apa All Boys Actif 124 / 102 40% 1 27.11.2026 -
Tyrese Spicer Orlando City Actif 122 / 122 40% 2 26.11.2026 -
Nicolás Leites Artigas Actif 84 / 94 40% 1 26.11.2026 -
Juan Quintana Montevideo City Torque Actif 114 / 95 40% 1 25.11.2026 -
Paolo Medina Austin FC Actif 91 / 125 40% 1 25.11.2026 -
Francisco Salerno Defensores Unidos Actif 103 / 116 40% 2 24.11.2026 -
Facundo Lencioni Gimnasia y Esgrima Actif 107 / 117 40% 1 24.11.2026 -
Massimo Sandi Sport Huancayo Actif 93 / 88 40% 1 24.11.2026 -
Enzo Larrosa Independiente Medellin Actif 112 / 115 40% 1 24.11.2026 -
Joel Orlando Almagro Actif 103 / 122 40% 1 23.11.2026 -
Blas Armoa Gimnasia y Esgrima Actif 127 / 124 40% 1 23.11.2026 -
Facundo Butti Cerro Actif 90 / 104 40% 1 22.11.2026 -
Sebastián da Silva Racing Actif 98 / 95 40% 2 21.11.2026 -
Germán Peralta La Luz Actif 93 / 114 40% 1 21.11.2026 -
Richard Torales Guarani Actif 117 / 112 40% 1 21.11.2026 -
Christian Castillo Tijuana Actif 93 / 113 40% 1 20.11.2026 -
Nahuel Soria Oriental Actif 89 / 101 40% 3 18.11.2026 -
Kleyder Barreto Zamora Actif 101 / 96 40% 2 17.11.2026 -
Jairo Amaro Cerro Actif 95 / 101 40% 1 17.11.2026 -
Fernando Bersano Madryn Actif 131 / 100 40% 1 17.11.2026 -
Luis Iberico Sporting Cristal Actif 103 / 126 40% 2 16.11.2026 -
Facundo Vila Estudiantes Actif 93 / 86 40% 1 16.11.2026 -
Nicolás Rossi Juventud Actif 108 / 110 40% 2 15.11.2026 -
Santiago Herrera Estudiantes de Caracas Actif 101 / 84 40% 1 15.11.2026 -
Manuel Duarte Barracas Central Actif 122 / 132 40% 1 14.11.2026 -
Juan Velázquez Belgrano Actif 124 / 141 40% 1 14.11.2026 -
Facundo Di Biasi Gimnasia La Plata Actif 111 / 126 40% 1 13.11.2026 -
Lucas González Nacional Actif 110 / 99 40% 1 12.11.2026 -
Matías Vargas Gimnasia y Esgrima Actif 138 / 126 40% 1 12.11.2026 -
Agustín Bianciotti Metropolitanos Actif 110 / 111 40% 1 11.11.2026 -
Néstor Giménez Libertad Actif 111 / 100 40% 1 11.11.2026 -
Ezequiel Neira Carabobo Actif 121 / 105 40% 1 11.11.2026 -
Santiago Ramírez Deportivo Maldonado Actif 103 / 114 40% 4 10.11.2026 -
Tomás Durso Atlético Tucumán Actif 121 / 114 40% 2 10.11.2026 -
Lucas Pazos Artigas Actif 92 / 78 40% 1 10.11.2026 -
Franco González Penarol Actif 103 / 101 40% 1 10.11.2026 -
Tomás Zamora Mineros de Guayana Actif 96 / 88 40% 1 10.11.2026 -
Thomas Ortega Quilmes Actif 100 / 96 40% 1 09.11.2026 -
Ignacio Yepez Cerrito Actif 106 / 97 40% 2 08.11.2026 -
Cristian Lima Uruguay Montevideo Actif 103 / 108 40% 4 07.11.2026 -
Nicolás Molina Temperley Actif 121 / 109 40% 1 07.11.2026 -
Francisco Casanova Cerrito Actif 112 / 106 40% 1 06.11.2026 -
Agustín Navarro Atenas Actif 106 / 107 40% 1 05.11.2026 -
Kevin Lezcano Guarani Actif 90 / 72 40% 1 05.11.2026 -
Gaizka Gómez Wanderers Actif 78 / 88 40% 1 05.11.2026 -
Martín Vallejo Oriental Actif 79 / 91 40% 2 04.11.2026 -
Favio Cabral Mitre Actif 119 / 131 40% 3 04.11.2026 -
Joaquín Bigo Tristán Suárez Actif 121 / 102 40% 1 04.11.2026 -
Ramiro Hernandes Belgrano Actif 108 / 140 40% 1 04.11.2026 -
Misael Tarón Ferro Carril Oeste Actif 102 / 101 40% 1 02.11.2026 -
Bruno Palazzo Nueva Chicago Actif 125 / 106 40% 1 02.11.2026 -
Brian Nievas Chaco For Ever Actif 97 / 115 40% 2 01.11.2026 -
Facundo Silvera Montevideo City Torque Actif 114 / 120 40% 1 01.11.2026 -
Axel Herrera Santiago Wanderers Actif 100 / 85 40% 1 31.10.2026 -
Juan Manuel Requena Universitario Actif 108 / 123 40% 1 31.10.2026 -
Sergio Rivas New England Revolution Actif 109 / 80 40% 1 31.10.2026 -
Franco Suárez Racing Actif 100 / 100 40% 1 31.10.2026 -
Brian González Atenas Actif 108 / 92 40% 2 30.10.2026 -
Martín Araya Palestino Actif 80 / 101 40% 1 29.10.2026 -
Nicolás Forastiero Deportivo Maldonado Actif 92 / 91 40% 1 29.10.2026 -
Agustín Solari 12 de Octubre Actif 86 / 84 40% 1 29.10.2026 -
Esteban Moreira O'Higgins Actif 100 / 91 40% 1 28.10.2026 -
Fernando Miranda Colegiales Actif 108 / 119 40% 1 28.10.2026 -
Juan Ignacio Méndez Instituto Actif 125 / 125 40% 1 28.10.2026 -
Enzo Silcan Almagro Actif 98 / 97 40% 1 27.10.2026 -
Rodrigo Muníz Uruguay Montevideo Actif 106 / 107 40% 2 26.10.2026 -
José Barreto Quilmes Actif 124 / 119 40% 1 26.10.2026 -
Alejo Montero Newell's Old Boys Actif 133 / 131 40% 1 26.10.2026 -
Leandro Umpiérrez Penarol Actif 109 / 113 40% 1 25.10.2026 -
Ignacio Vallejos Colegiales Actif 104 / 119 40% 1 25.10.2026 -
Martín Pino Godoy Cruz Actif 104 / 106 40% 1 25.10.2026 -
Alejandro Samudio Nacional Actif 96 / 108 40% 2 24.10.2026 -
Juan Moreno La Luz Actif 114 / 125 40% 2 22.10.2026 -
Nahuel Sena Cerro Actif 98 / 114 40% 1 20.10.2026 -
Francisco Galván Deportivo Municipal Actif 119 / 100 40% 3 19.10.2026 -
Hugo Ancajima Universitario Actif 108 / 105 40% 2 18.10.2026 -
Fernando Savarino Llaneros Actif 104 / 100 40% 1 18.10.2026 -
Ignacio Colombo Los Angeles Football Club Actif 73 / 72 40% 1 18.10.2026 -
Omar Robles Real Cartagena Actif 60 / 66 40% 1 17.10.2026 -
Renato Alexandrino Oriental Actif 83 / 100 40% 1 15.10.2026 -
Diego Magallanes Defensores Actif 108 / 92 40% 1 15.10.2026 -
Nicolás Brun Montevideo City Torque Actif 99 / 99 40% 2 14.10.2026 -
Gerardo Valenzuela FC Cincinnati Actif 95 / 107 40% 1 14.10.2026 -
Kevin Alaniz Rampla Juniors Actif 102 / 85 40% 1 13.10.2026 -
Agustín Benítez Defensores Actif 110 / 117 40% 1 13.10.2026 -
Matías Mir Liverpool Montevideo Actif 114 / 117 40% 1 13.10.2026 -
Kevin Lewis Liverpool Montevideo Actif 93 / 93 40% 2 12.10.2026 -
Juan Pablo Noce All Boys Actif 119 / 113 40% 1 12.10.2026 -
Nicolás Bolcato Independiente Rivadavia Actif 109 / 99 40% 1 12.10.2026 -
Ronny Maza Aragua Actif 93 / 90 40% 1 12.10.2026 -
Jerónimo Russo Newell's Old Boys Actif 111 / 98 40% 1 12.10.2026 -
José Cabrera Union Magdalena Actif 95 / 90 40% 1 12.10.2026 -
Lautaro Gordillo Colegiales Actif 125 / 108 40% 2 10.10.2026 -
Nicolás Heiz Maipú Actif 117 / 106 40% 1 09.10.2026 -
José Rondón Zulia Actif 87 / 105 40% 1 09.10.2026 -
Luciano Jachfe Nueva Chicago Actif 106 / 99 40% 1 09.10.2026 -
Laureano Martínez Talleres Actif 107 / 124 40% 1 09.10.2026 -
Álex Perdomo Defensor Sporting Actif 105 / 114 40% 2 08.10.2026 -
Maicol Ferreira Danubio Actif 118 / 109 40% 1 08.10.2026 -
Gaspar Duarte Rosario Central Actif 109 / 121 40% 1 07.10.2026 -
Jimmy Evans Universidad Catolica Actif 108 / 99 40% 2 06.10.2026 -
Luifer Hernández Puebla Actif 99 / 125 40% 1 06.10.2026 -
Francisco Sagardia Rentistas Actif 78 / 77 40% 1 05.10.2026 -
Franco Malagueño Colegiales Actif 115 / 109 40% 1 05.10.2026 -
Julián Vila Arsenal Actif 118 / 108 40% 1 05.10.2026 -
Franco Bustamante Almagro Actif 115 / 98 40% 1 05.10.2026 -
Maximiliano Rueda Patronato Actif 101 / 121 40% 1 05.10.2026 -
Martin Carreño San Luis Actif 85 / 87 40% 2 03.10.2026 -
Nicolás Fernández Maipú Actif 119 / 93 40% 1 03.10.2026 -
Jesús Vega Queretaro Actif 112 / 119 40% 1 01.10.2026 -
Sebastián Cocimano Nueva Chicago Actif 103 / 119 40% 1 01.10.2026 -
Lautaro Maldonado Instituto Actif 117 / 126 40% 1 01.10.2026 -
Luis Barbat Cerrito Actif 80 / 78 40% 1 01.10.2026 -
Augusto Berrondo Tristán Suárez Actif 113 / 108 40% 2 30.09.2026 -
José Rivera Universitario Actif 125 / 125 40% 1 30.09.2026 -
Alejandro Molina Tristán Suárez Actif 112 / 107 40% 1 29.09.2026 -
Diego Corral Universidad Catolica Actif 79 / 102 40% 1 29.09.2026 -
Matías Núñez Atenas Actif 97 / 112 40% 3 27.09.2026 -
Matías Viguet Maipú Actif 102 / 121 40% 1 27.09.2026 -
Santiago Sala Güemes Actif 113 / 116 40% 1 26.09.2026 -
Nicolás Fernández Progreso Actif 96 / 117 40% 1 26.09.2026 -
Yeferson Cordova Llaneros Actif 95 / 111 40% 1 24.09.2026 -
Nelson Cabanillas Melgar Actif 98 / 104 40% 2 23.09.2026 -
Junior Paredes Trujillanos Actif 103 / 86 40% 1 23.09.2026 -
Franco Martínez Artigas Actif 112 / 100 40% 3 21.09.2026 -
Nicolás Burgio Montevideo City Torque Actif 86 / 75 40% 1 21.09.2026 -
Gianfranco Chávez Alianza Lima Actif 108 / 124 40% 1 21.09.2026 -
Cristóbal Guerra San Marcos de Arica Actif 102 / 103 40% 1 20.09.2026 -
Gali Balanta Deportes Tolima Actif 84 / 104 40% 2 19.09.2026 -
Agustín Gallo Tristán Suárez Actif 124 / 109 40% 1 19.09.2026 -
Fabrizio Correa Juventud Actif 104 / 118 40% 2 18.09.2026 -
Christian Ebere Cruz Azul Actif 140 / 118 40% 2 18.09.2026 -
Owen Falconis Cerrito Actif 93 / 109 40% 1 18.09.2026 -
Ignacio Rodríguez Racing Club Actif 117 / 137 40% 1 17.09.2026 -
Andrés Montaño Cruz Azul Actif 124 / 130 40% 1 16.09.2026 -
Mauro Rodas Sportivo Trinidense Actif 95 / 87 40% 1 15.09.2026 -
Franco Pérez Boston River Actif 93 / 102 40% 1 14.09.2026 -
Pablo López Tacuarembo Actif 111 / 114 40% 1 14.09.2026 -
Sebastián Guerra Barranquilla Actif 90 / 97 40% 1 14.09.2026 -
Federico Losas Chacarita Juniors Actif 114 / 97 40% 1 13.09.2026 -
Agustín Requena Progreso Actif 98 / 98 40% 1 13.09.2026 -
Marcelo Fernández Libertad Actif 111 / 116 40% 1 13.09.2026 -
José Rivas Gamboa Trujillanos Actif 96 / 103 40% 1 13.09.2026 -
Leomar Mosquera Trujillanos Actif 99 / 111 40% 1 11.09.2026 -
Cristian Tovar America de Cali Actif 122 / 119 40% 1 10.09.2026 -
Antonio Martínez Cerro Porteno Actif 74 / 73 40% 1 09.09.2026 -
Mauricio Isais Pachuca Actif 98 / 141 40% 2 08.09.2026 -
Camilo Machado Madryn Actif 121 / 112 40% 1 08.09.2026 -
Pedro Pedraza Pachuca Actif 128 / 109 40% 1 08.09.2026 -
Pablo Cardona Cortulua Actif 118 / 118 40% 1 07.09.2026 -
Martín Sarrafiore O'Higgins Actif 113 / 100 40% 1 07.09.2026 -
Elías Torres Racing Club Actif 115 / 117 40% 1 07.09.2026 -
Gastón Verón Argentinos Juniors Actif 112 / 129 40% 1 06.09.2026 -
Antonio González Estudiantes de Caracas Actif 100 / 89 40% 1 06.09.2026 -
Sebastián Guzmán Deportes Tolima Actif 115 / 130 40% 1 05.09.2026 -
Cristhofer Mesías Universidad de Concepcion Actif 102 / 102 40% 1 05.09.2026 -
Renato Solís Sporting Cristal Actif 121 / 105 40% 2 04.09.2026 -
Jeremi Machado Mineros de Guayana Actif 78 / 81 40% 1 03.09.2026 -
Samuel Velásquez Atletico Nacional Actif 112 / 120 40% 1 03.09.2026 -
Dylan Lozano Aguilas Doradas Actif 109 / 101 40% 1 01.09.2026 -
Anthony Stella Artigas Actif 91 / 103 40% 1 30.08.2026 -
Marco Collao Audax Italiano Actif 116 / 94 40% 1 30.08.2026 -
Éwil Murillo Santa Fe Actif 112 / 113 40% 1 30.08.2026 -
Agustín Pereira Albion Actif 112 / 108 40% 1 29.08.2026 -
Federico Dafonte Boston River Actif 88 / 112 40% 1 29.08.2026 -
Pável Pérez Toluca Actif 123 / 146 40% 1 29.08.2026 -
Julian Herrera Cortulua Actif 124 / 134 40% 2 27.08.2026 -
Santiago Naveda Club America Actif 96 / 133 40% 2 27.08.2026 -
Facundo Barreto Colon Actif 69 / 77 40% 1 27.08.2026 -
Didier Bueno Jaguares Actif 102 / 86 40% 1 27.08.2026 -
Juan Romero Olimpia Actif 105 / 98 40% 1 24.08.2026 -
Víctor Rivarola Guarani Actif 85 / 105 40% 1 23.08.2026 -
Nahuel Marzochi Colon Actif 94 / 94 40% 1 22.08.2026 -
Felipe Espinoza Iquique Actif 105 / 108 40% 1 22.08.2026 -
Iván Franco Libertad Actif 115 / 127 40% 1 21.08.2026 -
Luis Palacios Tigres Actif 112 / 105 40% 1 21.08.2026 -
Alejandro Rincon Llaneros Actif 107 / 106 40% 1 21.08.2026 -
Moisés Gallo Aragua Actif 95 / 85 40% 1 19.08.2026 -
Aldo Pérez Guarani Actif 99 / 93 40% 1 18.08.2026 -
Santiago Cubides Jaguares Actif 97 / 92 40% 1 18.08.2026 -
Derrick Etienne Jr. Toronto FC Actif 132 / 138 40% 1 18.08.2026 -
Jordan Carrillo Guadalajara Actif 133 / 105 40% 1 18.08.2026 -
Leonardo Olavarría Uruguay Montevideo Actif 90 / 113 40% 1 15.08.2026 -
Alessandro Burlamaqui Alianza Lima Actif 96 / 127 40% 1 12.08.2026 -
Brian Mancini Rampla Juniors Actif 87 / 66 40% 1 12.08.2026 -
Cristian Núñez Huracán Actif 125 / 117 40% 1 10.08.2026 -
José Luis Caicedo Barranquilla Actif 118 / 129 40% 1 10.08.2026 -
Johan Hinestroza Jaguares Actif 88 / 113 40% 1 10.08.2026 -
Jonathan Amarilla River Plate Actif 76 / 98 40% 1 07.08.2026 -
Rodrigo Viera Cerrito Actif 105 / 104 40% 1 07.08.2026 -
Mathías Bernatene Liverpool Montevideo Actif 103 / 83 40% 1 06.08.2026 -
Francisco Morel Nacional Actif 75 / 82 40% 1 05.08.2026 -
Christian Franco Oriental Actif 87 / 91 40% 1 05.08.2026 -
Ismael Tejería Rampla Juniors Actif 90 / 78 40% 1 05.08.2026 -
Álvaro San Emeterio Tacuarembo Actif 103 / 88 40% 1 05.08.2026 -
Ronald Duarte 12 de Octubre Actif 81 / 93 40% 1 04.08.2026 -
Andrés Buelvas Bogota Actif 78 / 82 40% 1 04.08.2026 -
Léider Riascos Llaneros Actif 129 / 129 40% 1 04.08.2026 -
Esteban Beltrán Jaguares Actif 117 / 115 40% 1 04.08.2026 -
Paolo Reyna Universitario Actif 115 / 124 40% 1 03.08.2026 -
Carlos Romaña Atletico Bucaramanga Actif 128 / 107 40% 1 03.08.2026 -
Martín Ballesteros Audax Italiano Actif 91 / 69 40% 1 03.08.2026 -
Ángel González Libertad Actif 89 / 111 40% 1 03.08.2026 -
Jeriel De Santis Caracas Actif 96 / 97 40% 1 02.08.2026 -
Briam Acosta Albion Actif 106 / 104 40% 1 01.08.2026 -
Milton Giménez Boca Juniors Actif 132 / 144 40% 1 01.08.2026 -
Andrés Reyes Atletico Nacional Actif 110 / 135 40% 1 01.08.2026 -